Time;durP1;ratioP1;P1;durP2;ratioP2;P2;SDS_P1;SDS_P2;PMS_P1;PMS_P2;Temp;Humidity;BMP_temperature;BMP_pressure;BME280_temperature;BME280_humidity;BME280_pressure;Samples;Min_cycle;Max_cycle;Signal;HPM_P1;HPM_P2
2022/01/05 00:01:37;;;;;;;15.35;3.05;;;;;;;3.69;82.58;100111.25;5072277;28;20025;-69
2022/01/05 00:04:03;;;;;;;15.88;2.50;;;;;;;3.65;81.91;100111.13;5070222;28;20088;-69
2022/01/05 00:06:28;;;;;;;13.05;2.72;;;;;;;3.62;82.85;100117.84;5069064;28;20052;-69
2022/01/05 00:08:53;;;;;;;15.55;2.30;;;;;;;3.59;82.67;100123.78;5072343;28;20024;-69
2022/01/05 00:11:18;;;;;;;10.13;2.17;;;;;;;3.58;82.56;100122.00;5085433;28;20048;-69
2022/01/05 00:13:44;;;;;;;11.18;2.22;;;;;;;3.56;82.59;100117.63;5071621;28;20040;-69
2022/01/05 00:16:09;;;;;;;13.10;2.20;;;;;;;3.53;81.59;100122.66;5074971;28;20230;-69
2022/01/05 00:18:35;;;;;;;10.85;2.35;;;;;;;3.51;81.68;100124.28;5077407;28;20031;-69
2022/01/05 00:21:01;;;;;;;13.82;3.17;;;;;;;3.47;80.93;100119.00;5076352;28;20021;-69
2022/01/05 00:23:27;;;;;;;15.85;3.00;;;;;;;3.44;80.93;100123.16;5071822;28;20017;-69
2022/01/05 00:25:52;;;;;;;10.68;2.55;;;;;;;3.43;80.94;100116.25;5070444;28;20078;-69
2022/01/05 00:28:18;;;;;;;17.60;2.92;;;;;;;3.42;80.59;100114.50;5068059;28;20020;-69
2022/01/05 00:30:43;;;;;;;10.88;2.83;;;;;;;3.40;80.37;100122.13;5067578;28;20020;-69
2022/01/05 00:33:08;;;;;;;11.50;2.55;;;;;;;3.38;79.93;100117.75;5069184;28;20020;-69
2022/01/05 00:35:34;;;;;;;10.50;2.40;;;;;;;3.37;80.28;100121.16;5068594;28;20017;-69
2022/01/05 00:37:59;;;;;;;13.25;2.83;;;;;;;3.34;80.13;100116.75;5069733;28;20209;-69
2022/01/05 00:40:25;;;;;;;11.80;3.08;;;;;;;3.33;80.02;100119.25;5072086;28;20021;-69
2022/01/05 00:42:50;;;;;;;11.93;3.13;;;;;;;3.30;79.77;100120.91;5071695;28;20066;-69
2022/01/05 00:45:15;;;;;;;13.57;2.53;;;;;;;3.28;80.15;100127.66;5069029;28;20098;-69
2022/01/05 00:47:40;;;;;;;13.38;3.70;;;;;;;3.27;80.19;100125.03;5070829;28;20066;-69
2022/01/05 00:50:06;;;;;;;13.07;3.15;;;;;;;3.23;79.86;100133.44;5069323;28;20148;-69
2022/01/05 00:52:31;;;;;;;10.82;2.60;;;;;;;3.19;80.11;100136.72;5071231;28;20020;-69
2022/01/05 00:54:57;;;;;;;11.20;2.80;;;;;;;3.17;80.48;100144.34;5071931;28;20148;-69
2022/01/05 00:57:22;;;;;;;12.95;2.83;;;;;;;3.13;80.72;100151.09;5084504;28;20028;-69
2022/01/05 00:59:47;;;;;;;13.10;3.78;;;;;;;3.11;80.63;100152.72;5070280;28;20024;-69
2022/01/05 01:02:13;;;;;;;14.60;3.33;;;;;;;3.10;80.60;100153.53;5075691;28;20044;-69
2022/01/05 01:04:38;;;;;;;11.10;3.22;;;;;;;3.08;80.74;100154.28;5068613;28;20044;-69
2022/01/05 01:07:03;;;;;;;12.35;3.25;;;;;;;3.04;80.66;100148.13;5066870;28;20033;-69
2022/01/05 01:09:29;;;;;;;12.82;2.95;;;;;;;3.01;80.13;100154.81;5067050;28;20027;-69
2022/01/05 01:11:54;;;;;;;14.75;3.40;;;;;;;2.96;80.38;100145.22;5068775;28;20029;-68
2022/01/05 01:14:19;;;;;;;15.23;3.40;;;;;;;2.93;80.47;100146.78;5071524;28;20020;-69
2022/01/05 01:16:44;;;;;;;13.77;3.20;;;;;;;2.89;80.30;100148.34;5076499;28;20017;-69
2022/01/05 01:19:11;;;;;;;11.82;3.15;;;;;;;2.85;80.65;100151.59;5071493;28;20016;-69
2022/01/05 01:21:37;;;;;;;13.65;4.78;;;;;;;2.81;80.58;100159.09;5077434;28;20231;-69
2022/01/05 01:24:02;;;;;;;12.65;3.67;;;;;;;2.80;80.43;100157.38;5073689;28;20282;-69
2022/01/05 01:26:30;;;;;;;15.45;3.95;;;;;;;2.78;80.73;100159.84;5073471;28;20029;-69
2022/01/05 01:28:58;;;;;;;13.85;3.38;;;;;;;2.75;81.13;100158.03;5077602;28;20291;-69
2022/01/05 01:31:24;;;;;;;15.23;3.30;;;;;;;2.73;80.88;100164.78;5071702;28;20035;-69
2022/01/05 01:33:50;;;;;;;11.27;3.50;;;;;;;2.69;80.49;100162.03;5075067;28;20033;-69
2022/01/05 01:36:15;;;;;;;10.82;3.38;;;;;;;2.66;80.63;100167.91;5073726;28;20087;-69
2022/01/05 01:38:44;;;;;;;16.05;3.90;;;;;;;2.64;80.78;100166.09;5076761;28;20040;-69
2022/01/05 01:41:10;;;;;;;12.13;3.88;;;;;;;2.61;80.91;100167.72;5072987;28;20012;-69
2022/01/05 01:43:36;;;;;;;17.70;4.70;;;;;;;2.57;80.66;100152.94;5074316;28;20020;-69
2022/01/05 01:46:03;;;;;;;13.05;3.30;;;;;;;2.53;81.19;100163.91;5075230;28;20023;-69
2022/01/05 01:48:29;;;;;;;13.07;3.50;;;;;;;2.52;80.58;100161.25;5075234;28;20266;-69
2022/01/05 01:50:54;;;;;;;12.35;3.55;;;;;;;2.48;80.91;100161.94;5072008;28;20012;-69
2022/01/05 01:53:19;;;;;;;19.83;3.58;;;;;;;2.44;80.05;100154.09;5076102;28;20016;-69
2022/01/05 01:55:48;;;;;;;12.80;3.65;;;;;;;2.44;80.66;100159.22;5070615;28;20203;-69
2022/01/05 01:58:14;;;;;;;12.30;3.05;;;;;;;2.47;80.57;100167.91;5072395;28;20093;-69
2022/01/05 02:00:39;;;;;;;12.40;3.55;;;;;;;2.45;80.32;100175.56;5074062;28;20013;-69
2022/01/05 02:03:04;;;;;;;14.02;2.97;;;;;;;2.46;80.47;100182.44;5074433;28;20017;-69
2022/01/05 02:05:30;;;;;;;11.13;3.13;;;;;;;2.44;80.38;100172.09;5070313;28;20160;-69
2022/01/05 02:07:55;;;;;;;12.48;3.38;;;;;;;2.44;80.30;100174.66;5069861;28;20201;-69
2022/01/05 02:10:20;;;;;;;12.40;3.63;;;;;;;2.44;80.38;100174.66;5075649;28;20039;-69
2022/01/05 02:12:47;;;;;;;14.25;3.55;;;;;;;2.43;80.09;100177.16;5073184;28;20092;-69
2022/01/05 02:15:12;;;;;;;13.50;2.97;;;;;;;2.40;79.70;100172.78;5072658;28;20029;-69
2022/01/05 02:17:55;;;;;;;10.38;3.05;;;;;;;2.38;80.12;100168.38;5076433;28;20021;-69
2022/01/05 02:20:24;;;;;;;12.30;2.80;;;;;;;2.35;79.55;100166.53;5071568;28;20151;-69
2022/01/05 02:22:50;;;;;;;12.80;3.13;;;;;;;2.35;79.39;100169.09;5073630;28;20186;-69
2022/01/05 02:25:16;;;;;;;14.20;2.67;;;;;;;2.33;79.06;100170.75;5074792;28;20036;-69
2022/01/05 02:27:44;;;;;;;14.80;3.00;;;;;;;2.33;79.27;100172.41;5074547;28;20070;-69
2022/01/05 02:30:12;;;;;;;12.60;2.65;;;;;;;2.31;79.69;100181.75;5074965;28;20055;-69
2022/01/05 02:32:37;;;;;;;12.02;3.55;;;;;;;2.28;79.52;100179.06;5070494;28;20032;-69
2022/01/05 02:35:04;;;;;;;13.63;3.67;;;;;;;2.26;79.63;100179.84;5072123;28;20013;-69
2022/01/05 02:37:29;;;;;;;9.60;2.30;;;;;;;2.23;79.48;100190.00;5074278;28;20055;-69
2022/01/05 02:39:54;;;;;;;13.60;2.80;;;;;;;2.20;79.55;100179.56;5072736;28;20035;-69
2022/01/05 02:42:30;;;;;;;15.60;2.90;;;;;;;2.19;79.26;100193.22;5073589;28;20028;-69
2022/01/05 02:44:56;;;;;;;15.68;3.28;;;;;;;2.18;79.71;100190.59;5070292;28;20025;-69
2022/01/05 02:47:22;;;;;;;11.77;2.40;;;;;;;2.17;79.57;100189.72;5069658;28;20056;-69
2022/01/05 02:49:48;;;;;;;13.80;2.30;;;;;;;2.15;79.57;100191.31;5069209;28;20040;-69
2022/01/05 02:52:14;;;;;;;9.05;2.30;;;;;;;2.14;79.73;100194.69;5078073;28;20016;-69
2022/01/05 02:54:40;;;;;;;9.10;2.60;;;;;;;2.10;80.03;100203.09;5073323;28;20012;-69
2022/01/05 02:57:05;;;;;;;12.55;2.63;;;;;;;2.06;79.75;100204.63;5070629;28;20058;-69
2022/01/05 02:59:30;;;;;;;11.32;2.50;;;;;;;2.01;79.95;100206.06;5070393;28;20016;-69
2022/01/05 03:01:56;;;;;;;10.05;2.28;;;;;;;1.98;79.99;100208.50;5074018;28;20081;-69
2022/01/05 03:04:21;;;;;;;15.13;2.78;;;;;;;1.96;79.59;100210.13;5070418;28;20040;-69
2022/01/05 03:06:46;;;;;;;11.90;2.33;;;;;;;1.92;80.12;100214.22;5073948;28;20089;-69
2022/01/05 03:09:11;;;;;;;11.93;2.70;;;;;;;1.90;80.25;100214.97;5072657;28;20017;-69
2022/01/05 03:11:37;;;;;;;15.10;2.95;;;;;;;1.89;79.78;100216.66;5068931;28;20023;-69
2022/01/05 03:14:02;;;;;;;10.75;3.10;;;;;;;1.90;79.64;100220.13;5069027;28;20229;-69
2022/01/05 03:16:27;;;;;;;12.38;3.13;;;;;;;1.89;80.07;100224.34;5072798;28;20317;-69
2022/01/05 03:18:53;;;;;;;13.05;2.67;;;;;;;1.88;80.71;100227.75;5072858;28;20255;-69
2022/01/05 03:21:18;;;;;;;12.23;2.70;;;;;;;1.88;80.30;100232.91;5068661;28;20362;-69
2022/01/05 03:23:46;;;;;;;14.75;3.17;;;;;;;1.85;79.93;100236.97;5066894;28;20032;-69
2022/01/05 03:26:12;;;;;;;14.35;3.00;;;;;;;1.85;79.94;100236.97;5077111;28;20062;-69
2022/01/05 03:28:37;;;;;;;12.07;2.70;;;;;;;1.85;80.04;100242.13;5070369;28;20025;-69
2022/01/05 03:31:02;;;;;;;11.98;2.80;;;;;;;1.83;80.67;100239.47;5072223;28;20020;-69
2022/01/05 03:33:28;;;;;;;14.15;3.08;;;;;;;1.81;80.49;100238.53;5071040;28;20105;-69
2022/01/05 03:35:53;;;;;;;12.02;3.15;;;;;;;1.77;80.54;100244.31;5071957;28;20029;-69
2022/01/05 03:38:19;;;;;;;10.75;2.67;;;;;;;1.73;80.66;100243.28;5069928;28;20052;-69
2022/01/05 03:40:46;;;;;;;16.40;2.95;;;;;;;1.70;80.83;100257.66;5069515;28;20025;-69
2022/01/05 03:43:12;;;;;;;14.48;2.90;;;;;;;1.67;81.20;100254.94;5077387;28;20345;-69
2022/01/05 03:45:38;;;;;;;14.10;3.92;;;;;;;1.66;80.95;100256.63;5069512;28;20036;-69
2022/01/05 03:48:06;;;;;;;9.27;2.42;;;;;;;1.66;81.80;100255.75;5068132;28;20263;-69
2022/01/05 03:50:31;;;;;;;10.73;2.22;;;;;;;1.67;81.69;100248.13;5074332;28;20008;-69
2022/01/05 03:52:56;;;;;;;10.55;2.17;;;;;;;1.70;81.26;100255.09;5073803;28;20036;-69
2022/01/05 03:55:22;;;;;;;14.25;2.50;;;;;;;1.71;80.71;100259.44;5068597;28;20032;-69
2022/01/05 03:57:47;;;;;;;18.58;3.10;;;;;;;1.72;81.06;100253.47;5074699;28;20066;-69
2022/01/05 04:00:14;;;;;;;16.65;2.92;;;;;;;1.72;81.51;100254.38;5072933;28;20263;-69
2022/01/05 04:02:40;;;;;;;12.52;2.58;;;;;;;1.72;80.97;100254.38;5071462;28;20021;-69
2022/01/05 04:05:06;;;;;;;15.70;3.55;;;;;;;1.72;80.44;100256.03;5081111;28;20221;-69
2022/01/05 04:07:31;;;;;;;13.98;2.65;;;;;;;1.73;79.87;100257.81;5073009;28;20339;-69
2022/01/05 04:09:57;;;;;;;17.75;2.58;;;;;;;1.74;80.47;100259.59;5072539;28;20048;-69
2022/01/05 04:12:22;;;;;;;11.98;2.88;;;;;;;1.76;81.20;100260.53;5070895;28;20024;-69
2022/01/05 04:14:47;;;;;;;10.35;2.45;;;;;;;1.78;80.88;100260.59;5071413;28;20035;-69
2022/01/05 04:17:12;;;;;;;13.48;2.35;;;;;;;1.81;80.64;100255.63;5067479;28;20278;-69
2022/01/05 04:19:38;;;;;;;12.75;2.90;;;;;;;1.81;80.35;100265.88;5067331;28;20080;-69
2022/01/05 04:22:04;;;;;;;13.00;3.20;;;;;;;1.81;80.54;100268.47;5069080;28;20171;-69
2022/01/05 04:24:29;;;;;;;12.80;2.42;;;;;;;1.80;80.01;100270.16;5069225;28;20020;-69
2022/01/05 04:26:54;;;;;;;12.27;3.03;;;;;;;1.78;79.60;100271.75;5077332;28;20047;-69
2022/01/05 04:29:19;;;;;;;15.60;3.75;;;;;;;1.77;80.32;100272.56;5070297;28;20228;-69
2022/01/05 04:31:45;;;;;;;13.65;2.75;;;;;;;1.76;80.56;100273.38;5071879;28;20044;-69
2022/01/05 04:34:11;;;;;;;9.70;2.17;;;;;;;1.73;80.04;100279.22;5067803;28;20175;-69
2022/01/05 04:36:36;;;;;;;12.55;2.80;;;;;;;1.73;80.38;100279.22;5072722;28;20012;-69
2022/01/05 04:39:02;;;;;;;14.57;2.53;;;;;;;1.70;80.84;100279.09;5067387;28;20156;-69
2022/01/05 04:41:28;;;;;;;13.80;2.63;;;;;;;1.70;80.80;100283.34;5070256;28;20029;-69
2022/01/05 04:43:53;;;;;;;13.52;2.88;;;;;;;1.69;80.57;100289.28;5070564;28;20051;-69
2022/01/05 04:46:18;;;;;;;14.45;2.47;;;;;;;1.70;80.82;100294.50;5071292;28;20302;-69
2022/01/05 04:48:44;;;;;;;18.73;2.58;;;;;;;1.71;80.70;100290.25;5074973;28;20060;-69
2022/01/05 04:51:09;;;;;;;14.65;2.55;;;;;;;1.73;81.84;100293.78;5070068;28;21021;-69
2022/01/05 04:53:34;;;;;;;16.08;2.65;;;;;;;1.74;81.12;100291.28;5073212;28;20032;-69
2022/01/05 04:56:00;;;;;;;11.05;3.08;;;;;;;1.74;81.82;100286.16;5076152;28;20102;-69
2022/01/05 04:58:25;;;;;;;17.90;3.13;;;;;;;1.77;81.90;100285.41;5071758;28;20033;-69
2022/01/05 05:00:50;;;;;;;16.50;3.22;;;;;;;1.80;81.61;100289.84;5077205;28;20033;-69
2022/01/05 05:03:16;;;;;;;15.95;3.00;;;;;;;1.82;82.01;100288.22;5069884;28;20061;-69
2022/01/05 05:05:41;;;;;;;12.90;3.28;;;;;;;1.86;81.66;100293.56;5076194;28;20036;-69
2022/01/05 05:08:06;;;;;;;13.93;2.47;;;;;;;1.90;82.74;100303.19;5078077;28;20020;-69
2022/01/05 05:10:32;;;;;;;19.63;3.33;;;;;;;1.95;82.06;100294.84;5071100;28;20033;-69
2022/01/05 05:12:57;;;;;;;13.32;2.88;;;;;;;1.97;82.64;100306.97;5070594;28;20283;-69
2022/01/05 05:15:23;;;;;;;18.15;3.03;;;;;;;2.00;82.06;100298.50;5079203;28;20017;-69
2022/01/05 05:17:49;;;;;;;18.33;2.75;;;;;;;2.04;82.59;100306.47;5073407;28;20302;-69
2022/01/05 05:20:14;;;;;;;15.52;2.92;;;;;;;2.08;82.34;100307.47;5071560;28;20021;-69
2022/01/05 05:22:40;;;;;;;16.00;2.90;;;;;;;2.12;82.42;100311.09;5072101;28;20021;-69
2022/01/05 05:25:06;;;;;;;14.93;3.15;;;;;;;2.15;81.92;100298.38;5076434;28;20008;-69
2022/01/05 05:27:32;;;;;;;16.23;2.53;;;;;;;2.18;82.33;100304.53;5081498;28;20024;-69
2022/01/05 05:29:57;;;;;;;14.35;2.70;;;;;;;2.23;82.00;100307.31;5076069;28;20058;-69
2022/01/05 05:32:22;;;;;;;17.88;3.08;;;;;;;2.24;82.65;100298.81;5072720;28;20059;-69
2022/01/05 05:34:48;;;;;;;13.38;2.97;;;;;;;2.24;82.89;100303.97;5072788;28;20183;-68
2022/01/05 05:37:15;;;;;;;16.67;3.25;;;;;;;2.23;82.25;100297.94;5071858;28;20360;-69
2022/01/05 05:39:41;;;;;;;15.38;2.80;;;;;;;2.24;82.85;100302.25;5072458;28;20093;-69
2022/01/05 05:42:07;;;;;;;14.20;2.75;;;;;;;2.23;82.35;100292.81;5074356;28;20198;-69
2022/01/05 05:44:32;;;;;;;21.30;3.33;;;;;;;2.20;82.34;100302.03;5071922;28;20021;-69
2022/01/05 05:46:57;;;;;;;13.88;3.40;;;;;;;2.19;82.35;100306.31;5074699;28;20020;-69
2022/01/05 05:49:22;;;;;;;13.65;3.17;;;;;;;2.19;82.80;100313.16;5070553;28;20036;-69
2022/01/05 05:51:48;;;;;;;17.67;2.97;;;;;;;2.19;82.38;100308.88;5073217;28;20171;-69
2022/01/05 05:54:13;;;;;;;14.23;3.28;;;;;;;2.19;82.67;100316.59;5072703;28;20088;-69
2022/01/05 05:56:38;;;;;;;12.82;3.13;;;;;;;2.19;82.75;100323.44;5076261;28;20259;-69
2022/01/05 05:59:03;;;;;;;15.00;3.05;;;;;;;2.19;82.92;100320.88;5068750;28;20017;-69
2022/01/05 06:01:29;;;;;;;12.98;3.45;;;;;;;2.19;82.94;100326.88;5074128;28;20314;-69
2022/01/05 06:03:55;;;;;;;14.02;3.75;;;;;;;2.18;82.80;100321.66;5074506;28;20024;-69
2022/01/05 06:06:20;;;;;;;11.75;3.25;;;;;;;2.17;83.47;100330.16;5074623;28;20032;-69
2022/01/05 06:08:46;;;;;;;23.00;3.85;;;;;;;2.16;83.00;100323.25;5075659;28;20079;-69
2022/01/05 06:11:11;;;;;;;14.52;4.38;;;;;;;2.14;83.22;100323.19;5076527;28;20082;-69
2022/01/05 06:13:36;;;;;;;17.60;4.95;;;;;;;2.16;83.24;100323.25;5077219;28;20268;-69
2022/01/05 06:16:02;;;;;;;16.35;3.67;;;;;;;2.15;83.58;100322.38;5072741;28;20423;-69
2022/01/05 06:18:27;;;;;;;15.25;3.50;;;;;;;2.14;83.42;100323.19;5079820;28;20027;-69
2022/01/05 06:20:53;;;;;;;18.63;4.47;;;;;;;2.15;83.29;100324.97;5070000;28;20062;-69
2022/01/05 06:23:18;;;;;;;18.67;3.80;;;;;;;2.15;83.69;100324.97;5075219;28;20084;-69
2022/01/05 06:25:43;;;;;;;17.13;3.30;;;;;;;2.15;83.85;100329.22;5076074;28;20050;-69
2022/01/05 06:28:11;;;;;;;22.80;3.97;;;;;;;2.15;83.91;100327.53;5078202;28;20009;-69
2022/01/05 06:30:38;;;;;;;13.20;3.78;;;;;;;2.16;83.55;100334.44;5068404;28;20024;-69
2022/01/05 06:33:04;;;;;;;18.20;3.45;;;;;;;2.16;83.70;100334.44;5069835;28;20063;-69
2022/01/05 06:35:29;;;;;;;16.55;3.97;;;;;;;2.17;83.69;100346.50;5074429;28;20017;-69
2022/01/05 06:37:55;;;;;;;15.32;3.72;;;;;;;2.16;84.46;100339.59;5073777;28;20186;-69
2022/01/05 06:40:20;;;;;;;15.27;3.92;;;;;;;2.17;84.23;100348.16;5070276;28;20024;-69
2022/01/05 06:42:46;;;;;;;17.27;3.75;;;;;;;2.16;83.97;100355.00;5072100;28;20017;-69
2022/01/05 06:45:11;;;;;;;14.40;3.45;;;;;;;2.15;84.44;100355.81;5073274;28;20194;-69
2022/01/05 06:47:36;;;;;;;16.63;3.72;;;;;;;2.16;84.38;100360.16;5071215;28;20031;-69
2022/01/05 06:50:02;;;;;;;14.98;4.00;;;;;;;2.17;84.71;100359.34;5070383;28;20020;-69
2022/01/05 06:52:27;;;;;;;17.50;4.28;;;;;;;2.17;84.67;100356.78;5072710;28;20032;-69
2022/01/05 06:54:52;;;;;;;16.17;4.30;;;;;;;2.18;84.88;100357.66;5073272;28;20023;-69
2022/01/05 06:57:18;;;;;;;18.17;4.05;;;;;;;2.19;84.94;100360.28;5087560;28;20016;-69
2022/01/05 06:59:43;;;;;;;16.33;3.58;;;;;;;2.21;84.54;100357.78;5075317;28;20008;-69
2022/01/05 07:02:08;;;;;;;12.90;4.25;;;;;;;2.22;84.47;100368.16;5071330;28;20099;-69
2022/01/05 07:04:34;;;;;;;16.38;3.80;;;;;;;2.22;84.67;100375.84;5071361;28;20032;-69
2022/01/05 07:07:00;;;;;;;18.27;4.40;;;;;;;2.22;84.83;100375.84;5074215;28;20107;-69
2022/01/05 07:09:25;;;;;;;18.95;4.45;;;;;;;2.22;84.53;100378.44;5072960;28;20043;-69
2022/01/05 07:11:50;;;;;;;16.92;4.10;;;;;;;2.22;84.42;100385.28;5077843;28;20016;-69
2022/01/05 07:14:15;;;;;;;16.23;4.75;;;;;;;2.22;85.05;100378.44;5068873;28;20017;-69
2022/01/05 07:16:41;;;;;;;20.63;4.60;;;;;;;2.23;85.18;100381.88;5070832;28;20092;-69
2022/01/05 07:19:06;;;;;;;18.42;4.50;;;;;;;2.23;85.15;100385.34;5073342;28;20054;-69
2022/01/05 07:21:33;;;;;;;19.15;4.50;;;;;;;2.25;85.18;100382.84;5071201;28;20031;-69
2022/01/05 07:24:00;;;;;;;18.13;4.50;;;;;;;2.25;84.90;100388.84;5070118;28;20016;-69
2022/01/05 07:26:27;;;;;;;20.25;4.18;;;;;;;2.25;85.13;100391.44;5076670;28;20283;-69
2022/01/05 07:28:52;;;;;;;17.67;4.22;;;;;;;2.27;85.25;100396.66;5071432;28;20290;-69
2022/01/05 07:31:18;;;;;;;16.85;4.63;;;;;;;2.29;85.09;100405.34;5067515;28;20048;-69
2022/01/05 07:33:43;;;;;;;15.77;4.13;;;;;;;2.30;85.72;100408.78;5071555;28;20047;-69
2022/01/05 07:36:08;;;;;;;14.43;4.35;;;;;;;2.31;85.05;100403.72;5070490;28;20293;-69
2022/01/05 07:38:34;;;;;;;15.98;5.05;;;;;;;2.33;85.22;100406.34;5071454;28;20020;-69
2022/01/05 07:40:59;;;;;;;13.35;4.30;;;;;;;2.32;85.49;100407.16;5072814;28;20083;-69
2022/01/05 07:43:24;;;;;;;14.02;4.15;;;;;;;2.35;86.20;100417.63;5074252;28;20036;-69
2022/01/05 07:45:49;;;;;;;17.83;5.05;;;;;;;2.35;85.88;100413.34;5079597;28;20012;-69
2022/01/05 07:48:15;;;;;;;21.30;4.40;;;;;;;2.38;86.10;100417.75;5071831;28;20020;-69
2022/01/05 07:50:40;;;;;;;20.55;4.25;;;;;;;2.40;86.23;100419.59;5067183;28;20020;-69
2022/01/05 07:53:05;;;;;;;17.90;4.75;;;;;;;2.44;86.19;100420.63;5076612;28;20066;-69
2022/01/05 07:55:32;;;;;;;19.27;4.10;;;;;;;2.46;86.32;100429.28;5077355;28;20016;-69
2022/01/05 07:57:59;;;;;;;13.80;3.70;;;;;;;2.48;85.83;100425.13;5075109;28;20095;-69
2022/01/05 08:00:25;;;;;;;15.35;4.80;;;;;;;2.51;86.10;100430.41;5080657;28;20244;-69
2022/01/05 08:02:50;;;;;;;24.35;4.80;;;;;;;2.55;85.94;100440.03;5071129;28;20035;-68
2022/01/05 08:05:15;;;;;;;13.30;3.72;;;;;;;2.58;86.23;100440.19;5075131;28;20259;-69
2022/01/05 08:07:40;;;;;;;17.42;4.15;;;;;;;2.63;85.81;100444.69;5073447;28;20356;-68
2022/01/05 08:10:06;;;;;;;18.55;4.13;;;;;;;2.69;86.38;100457.84;5078466;28;20024;-69
2022/01/05 08:12:32;;;;;;;17.58;4.13;;;;;;;2.74;85.88;100454.69;5066463;28;20024;-69
2022/01/05 08:14:57;;;;;;;16.15;4.43;;;;;;;2.80;86.10;100454.09;5068403;28;20055;-69
2022/01/05 08:17:22;;;;;;;21.90;4.22;;;;;;;2.87;85.15;100458.75;5084273;28;20032;-69
2022/01/05 08:19:48;;;;;;;16.00;3.97;;;;;;;2.94;85.12;100458.22;5078671;28;20012;-69
2022/01/05 08:22:13;;;;;;;13.05;3.60;;;;;;;3.02;85.06;100460.28;5072555;28;20016;-69
2022/01/05 08:24:39;;;;;;;17.92;3.78;;;;;;;3.07;84.71;100459.69;5077910;28;20024;-69
2022/01/05 08:27:05;;;;;;;19.05;3.72;;;;;;;3.13;84.76;100456.53;5074875;28;20320;-69
2022/01/05 08:29:30;;;;;;;15.77;3.80;;;;;;;3.18;84.36;100460.19;5076821;28;20040;-69
2022/01/05 08:31:55;;;;;;;19.10;3.70;;;;;;;3.23;84.15;100473.28;5080930;28;20031;-69
2022/01/05 08:34:21;;;;;;;20.80;3.90;;;;;;;3.28;83.99;100461.50;5082567;28;20082;-69
2022/01/05 08:36:46;;;;;;;18.95;3.60;;;;;;;3.31;84.09;100469.38;5080635;28;20029;-69
2022/01/05 08:39:12;;;;;;;24.38;3.78;;;;;;;3.35;83.62;100465.28;5080665;28;20504;-69
2022/01/05 08:41:38;;;;;;;14.52;3.17;;;;;;;3.37;83.67;100461.94;5081520;28;20025;-69
2022/01/05 08:44:03;;;;;;;15.35;3.78;;;;;;;3.40;83.64;100466.34;5079097;28;20048;-69
2022/01/05 08:46:28;;;;;;;14.80;3.83;;;;;;;3.45;83.30;100475.19;5082216;28;20024;-69
2022/01/05 08:48:54;;;;;;;19.20;4.32;;;;;;;3.49;83.19;100469.38;5079639;28;20024;-69
2022/01/05 08:51:19;;;;;;;18.38;3.65;;;;;;;3.52;82.55;100482.38;5079954;28;20024;-69
2022/01/05 08:53:44;;;;;;;16.17;3.45;;;;;;;3.54;82.50;100474.72;5086879;28;20028;-69
2022/01/05 08:56:10;;;;;;;16.13;3.13;;;;;;;3.55;82.68;100471.31;5086798;28;20020;-69
2022/01/05 08:58:35;;;;;;;19.90;4.10;;;;;;;3.54;82.80;100472.16;5087116;28;20020;-69
2022/01/05 09:01:00;;;;;;;15.30;4.15;;;;;;;3.56;82.12;100484.25;5075593;28;20170;-69
2022/01/05 09:03:26;;;;;;;14.18;3.65;;;;;;;3.59;82.78;100473.22;5083096;28;20546;-69
2022/01/05 09:05:51;;;;;;;17.50;3.92;;;;;;;3.68;82.47;100483.06;5083036;28;20043;-69
2022/01/05 09:08:16;;;;;;;13.07;3.40;;;;;;;3.75;82.52;100479.94;5080954;28;20013;-65
2022/01/05 09:10:43;;;;;;;17.15;4.00;;;;;;;3.83;82.44;100488.91;5075038;28;20033;-65
2022/01/05 09:13:12;;;;;;;21.77;3.97;;;;;;;3.87;81.87;100477.94;5083422;28;20020;-65
2022/01/05 09:15:38;;;;;;;;;;;;;;;3.91;82.69;100492.72;5088317;28;20024;-65
2022/01/05 09:18:04;;;;;;;16.77;3.20;;;;;;;3.89;82.57;100490.88;5099036;28;19902;-65
2022/01/05 09:20:30;;;;;;;14.50;3.80;;;;;;;3.89;82.90;100493.47;5085835;28;20028;-65
2022/01/05 09:22:56;;;;;;;16.42;3.60;;;;;;;3.88;83.41;100491.69;5084897;28;20016;-65
2022/01/05 09:25:23;;;;;;;12.98;3.10;;;;;;;3.86;82.64;100489.06;5070811;28;20016;-65
2022/01/05 09:27:49;;;;;;;18.70;3.65;;;;;;;3.87;83.10;100497.66;5093433;28;20028;-65
2022/01/05 09:30:15;;;;;;;17.20;3.83;;;;;;;3.88;83.10;100502.91;5093866;28;20022;-65
2022/01/05 09:32:41;;;;;;;16.35;3.65;;;;;;;3.90;82.59;100511.56;5074618;28;20107;-65
2022/01/05 09:35:08;;;;;;;24.08;4.65;;;;;;;3.92;82.76;100512.50;5099940;28;20317;-65
2022/01/05 09:37:39;;;;;;;16.92;4.00;;;;;;;3.94;83.14;100523.78;5099930;28;20069;-65
2022/01/05 09:42:49;;;;;;;14.30;3.45;;;;;;;3.98;83.86;100529.94;5083207;28;20065;-64
2022/01/05 09:45:14;;;;;;;18.75;3.47;;;;;;;3.99;83.60;100532.59;5091569;28;20048;-64
2022/01/05 09:48:11;;;;;;;16.85;3.55;;;;;;;4.00;83.21;100534.38;5087791;28;20070;-64
2022/01/05 09:50:42;;;;;;;21.95;3.80;;;;;;;3.99;83.46;100542.91;5084157;28;20032;-64
2022/01/05 09:53:08;;;;;;;14.32;3.25;;;;;;;3.98;83.54;100536.00;5085688;28;20191;-64
2022/01/05 09:55:33;;;;;;;16.98;3.30;;;;;;;3.98;83.50;100546.31;5083949;28;20247;-64
2022/01/05 09:57:59;;;;;;;14.52;3.33;;;;;;;3.98;83.50;100541.16;5088060;28;20271;-64
2022/01/05 10:00:25;;;;;;;14.18;3.45;;;;;;;3.97;83.87;100549.69;5086658;28;20032;-64
2022/01/05 10:02:50;;;;;;;16.83;3.60;;;;;;;3.98;84.14;100546.31;5079521;28;20008;-70
2022/01/05 10:05:16;;;;;;;16.42;3.30;;;;;;;3.98;83.70;100541.16;5076409;28;20028;-70
2022/01/05 10:07:42;;;;;;;17.88;3.92;;;;;;;4.00;83.76;100538.66;5082533;28;20016;-70
2022/01/05 10:10:09;;;;;;;15.05;3.22;;;;;;;4.00;83.89;100547.25;5078870;28;20089;-70
2022/01/05 10:12:34;;;;;;;16.63;3.90;;;;;;;4.03;83.86;100549.09;5086935;28;20066;-70
2022/01/05 10:14:59;;;;;;;19.55;3.05;;;;;;;4.05;83.54;100547.47;5082406;28;20016;-70
2022/01/05 10:17:30;;;;;;;18.40;3.75;;;;;;;4.09;84.03;100551.94;5071406;28;20154;-70
2022/01/05 10:20:13;;;;;;;13.25;3.00;;;;;;;4.11;83.99;100547.75;5081866;28;20051;-70
2022/01/05 10:22:44;;;;;;;14.32;2.85;;;;;;;4.14;84.37;100553.06;5080198;28;20101;-70
2022/01/05 10:25:20;;;;;;;18.27;3.92;;;;;;;4.20;84.42;100567.00;5082395;28;20017;-70
2022/01/05 10:28:01;;;;;;;17.83;3.65;;;;;;;4.27;84.29;100567.38;5080060;28;20012;-69
2022/01/05 10:30:46;;;;;;;17.10;3.50;;;;;;;4.35;84.35;100568.59;5085878;28;20031;-64
2022/01/05 10:33:12;;;;;;;21.75;4.20;;;;;;;4.41;84.31;100562.81;5078586;28;20016;-64
2022/01/05 10:35:38;;;;;;;20.88;3.53;;;;;;;4.45;83.51;100569.00;5076408;28;20055;-64
2022/01/05 10:38:07;;;;;;;19.75;3.30;;;;;;;4.47;83.30;100563.06;5077168;28;20066;-64
2022/01/05 10:40:35;;;;;;;19.38;3.88;;;;;;;4.51;84.02;100561.53;5082559;28;20012;-64
2022/01/05 10:43:09;;;;;;;19.05;3.28;;;;;;;4.55;83.05;100566.00;5083077;28;20024;-64
2022/01/05 10:45:41;;;;;;;15.70;3.17;;;;;;;4.60;82.81;100576.53;5078527;28;20021;-64
2022/01/05 10:48:25;;;;;;;17.35;3.38;;;;;;;4.64;82.09;100574.13;5079441;28;20028;-64
2022/01/05 10:51:04;;;;;;;17.05;3.28;;;;;;;4.69;82.10;100584.66;5083588;28;20208;-63
2022/01/05 10:53:29;;;;;;;19.58;3.35;;;;;;;4.72;82.06;100576.16;5083932;28;20078;-64
2022/01/05 10:55:54;;;;;;;18.23;3.47;;;;;;;4.78;81.83;100582.47;5084086;28;20013;-64
2022/01/05 10:58:20;;;;;;;16.00;3.08;;;;;;;4.84;81.84;100585.31;5084946;28;20218;-64
2022/01/05 11:00:52;;;;;;;14.75;3.15;;;;;;;4.91;82.52;100594.22;5079011;28;20163;-64
2022/01/05 11:03:30;;;;;;;19.45;3.63;;;;;;;4.99;82.25;100604.84;5083358;28;20040;-64
2022/01/05 11:06:17;;;;;;;20.10;3.70;;;;;;;5.02;81.48;100600.69;5084294;28;20100;-64
2022/01/05 11:08:56;;;;;;;17.00;3.50;;;;;;;5.04;81.60;100604.22;5084484;28;20032;-64
2022/01/05 11:11:42;;;;;;;22.52;4.28;;;;;;;5.05;81.72;100621.50;5083373;28;20028;-64
2022/01/05 11:14:11;;;;;;;15.82;3.08;;;;;;;5.05;81.02;100603.41;5077746;28;20033;-64
2022/01/05 11:16:38;;;;;;;15.02;3.25;;;;;;;5.09;80.82;100603.53;5078042;28;20025;-64
2022/01/05 11:19:19;;;;;;;16.30;3.05;;;;;;;5.13;81.16;100610.59;5083865;28;20083;-64
2022/01/05 11:21:54;;;;;;;18.65;3.38;;;;;;;5.12;81.26;100609.72;5072174;28;20016;-64
2022/01/05 11:24:20;;;;;;;18.00;3.72;;;;;;;5.10;81.64;100607.88;5084158;28;20078;-64
2022/01/05 11:26:46;;;;;;;18.23;3.33;;;;;;;5.09;81.86;100609.59;5081573;28;20097;-64